createdAt,value
2022-07-29T00:00:46.155Z,95
2022-07-29T00:03:51.485Z,171
2022-07-29T00:06:56.768Z,97
2022-07-29T00:10:39.140Z,76
2022-07-29T00:13:49.065Z,116
2022-07-29T00:16:49.866Z,98
2022-07-29T00:19:55.064Z,104
2022-07-29T00:23:00.365Z,107
2022-07-29T00:26:42.748Z,78
2022-07-29T00:29:48.034Z,215
2022-07-29T00:32:45.168Z,57
2022-07-29T00:35:50.447Z,209
2022-07-29T00:38:55.778Z,276
2022-07-29T00:42:38.152Z,218
2022-07-29T00:45:43.445Z,219
2022-07-29T00:48:48.855Z,192
2022-07-29T00:51:54.119Z,209
2022-07-29T00:54:59.415Z,102
2022-07-29T00:58:41.778Z,166
2022-07-29T01:01:47.171Z,384
2022-07-29T01:06:43.550Z,134
2022-07-29T01:11:40.066Z,109
2022-07-29T01:14:45.411Z,85
2022-07-29T01:17:52.867Z,381
2022-07-29T01:20:56.004Z,111
2022-07-29T01:24:38.415Z,99
2022-07-29T01:27:43.711Z,142
2022-07-29T01:32:32.071Z,82
2022-07-29T01:35:00.210Z,73
2022-07-29T01:38:42.620Z,67
2022-07-29T01:42:53.001Z,81
2022-07-29T01:44:53.232Z,45
2022-07-29T01:47:58.540Z,62
2022-07-29T01:51:40.891Z,27
2022-07-29T01:54:46.615Z,32
2022-07-29T01:57:51.516Z,24
2022-07-29T02:00:56.821Z,60
2022-07-29T02:04:39.269Z,65
2022-07-29T02:07:44.498Z,76
2022-07-29T02:10:49.822Z,41
2022-07-29T02:13:55.234Z,52
2022-07-29T02:17:00.443Z,41
2022-07-29T02:20:42.828Z,47
2022-07-29T02:23:50.404Z,57
2022-07-29T02:26:53.445Z,30
2022-07-29T02:29:58.777Z,42
2022-07-29T02:33:32.933Z,33
2022-07-29T02:36:38.246Z,61
2022-07-29T02:39:43.549Z,40
2022-07-29T02:42:48.861Z,35
2022-07-29T02:45:54.215Z,56
2022-07-29T02:48:59.551Z,26
2022-07-29T02:52:41.848Z,75
2022-07-29T02:55:47.199Z,28
2022-07-29T02:58:52.490Z,68
2022-07-29T03:01:57.857Z,53
2022-07-29T03:05:40.162Z,94
2022-07-29T03:08:45.494Z,40
2022-07-29T03:11:51.021Z,50
2022-07-29T03:14:56.131Z,33
2022-07-29T03:18:01.441Z,24
2022-07-29T03:21:43.808Z,36
2022-07-29T03:24:49.073Z,46
2022-07-29T03:27:54.415Z,41
2022-07-29T03:30:59.727Z,34
2022-07-29T03:34:33.898Z,21
2022-07-29T03:37:39.244Z,24
2022-07-29T03:40:44.526Z,27
2022-07-29T03:43:50.053Z,21
2022-07-29T03:46:55.171Z,17
2022-07-29T03:50:00.428Z,24
2022-07-29T03:53:42.842Z,26
2022-07-29T03:56:48.148Z,18
2022-07-29T03:59:53.445Z,20
2022-07-29T04:02:59.081Z,21
2022-07-29T04:06:41.108Z,23
2022-07-29T04:09:46.447Z,27
2022-07-29T04:12:51.779Z,22
2022-07-29T04:15:57.109Z,24
2022-07-29T04:19:39.425Z,27
2022-07-29T04:22:44.737Z,26
2022-07-29T04:25:50.077Z,27
2022-07-29T04:28:55.343Z,28
2022-07-29T04:33:43.659Z,23
2022-07-29T04:36:49.003Z,19
2022-07-29T04:39:54.299Z,27
2022-07-29T04:42:59.560Z,20
2022-07-29T04:46:42.017Z,26
2022-07-29T04:49:47.290Z,23
2022-07-29T04:52:52.570Z,21
2022-07-29T04:55:57.899Z,23
2022-07-29T04:59:40.262Z,20
2022-07-29T05:02:45.684Z,16
2022-07-29T05:05:50.863Z,23
2022-07-29T05:08:56.195Z,19
2022-07-29T05:12:38.607Z,18
2022-07-29T05:15:43.983Z,16
2022-07-29T05:18:49.193Z,22
2022-07-29T05:21:54.474Z,19
2022-07-29T05:24:59.805Z,20
2022-07-29T05:28:42.182Z,19
2022-07-29T05:31:47.459Z,18
2022-07-29T05:34:50.595Z,20
2022-07-29T05:37:50.027Z,19
2022-07-29T05:40:55.214Z,17
2022-07-29T05:44:00.519Z,20
2022-07-29T05:47:42.889Z,17
2022-07-29T05:50:48.224Z,18
2022-07-29T05:53:53.530Z,19
2022-07-29T05:56:58.859Z,13
2022-07-29T06:00:41.245Z,19
2022-07-29T06:03:46.532Z,19
2022-07-29T06:06:51.835Z,16
2022-07-29T06:09:57.144Z,17
2022-07-29T06:13:39.524Z,18
2022-07-29T06:16:44.924Z,17
2022-07-29T06:19:50.166Z,18
2022-07-29T06:22:55.415Z,16
2022-07-29T06:26:00.755Z,17
2022-07-29T06:29:43.127Z,15
2022-07-29T06:32:48.421Z,16
2022-07-29T06:35:46.696Z,17
2022-07-29T06:38:51.494Z,15
2022-07-29T06:41:56.172Z,18
2022-07-29T06:45:38.569Z,17
2022-07-29T06:48:43.882Z,16
2022-07-29T06:51:49.160Z,19
2022-07-29T06:54:54.530Z,17
2022-07-29T06:57:22.732Z,20
2022-07-29T06:59:50.960Z,19
2022-07-29T07:02:56.417Z,19
2022-07-29T07:07:10.926Z,15
2022-07-29T07:09:44.000Z,17
2022-07-29T07:12:49.280Z,17
2022-07-29T07:15:54.597Z,17
2022-07-29T07:18:59.906Z,18
2022-07-29T07:22:42.266Z,18
2022-07-29T07:25:47.561Z,15
2022-07-29T07:28:52.876Z,19
2022-07-29T07:32:00.837Z,21
2022-07-29T07:35:40.579Z,16
2022-07-29T07:38:45.894Z,15
2022-07-29T07:41:51.196Z,17
2022-07-29T07:44:19.786Z,16
2022-07-29T07:46:39.477Z,18
2022-07-29T07:49:45.096Z,23
2022-07-29T07:52:50.128Z,19
2022-07-29T07:56:09.744Z,18
2022-07-29T07:59:00.745Z,17
2022-07-29T08:02:43.147Z,17
2022-07-29T08:05:48.439Z,15
2022-07-29T08:08:56.218Z,19
2022-07-29T08:11:59.053Z,19
2022-07-29T08:15:41.398Z,18
2022-07-29T08:18:46.763Z,22
2022-07-29T08:21:52.291Z,17
2022-07-29T08:24:57.338Z,19
2022-07-29T08:28:39.698Z,19
2022-07-29T08:31:45.086Z,18
2022-07-29T08:34:50.326Z,19
2022-07-29T08:37:55.632Z,21
2022-07-29T08:41:00.949Z,26
2022-07-29T08:43:45.819Z,22
2022-07-29T08:46:42.951Z,21
2022-07-29T08:49:48.245Z,22
2022-07-29T08:52:57.980Z,22
2022-07-29T08:56:35.920Z,22
2022-07-29T08:59:41.252Z,20
2022-07-29T09:02:46.629Z,19
2022-07-29T09:05:51.886Z,21
2022-07-29T09:10:38.916Z,21
2022-07-29T09:12:39.544Z,24
2022-07-29T09:15:44.865Z,21
2022-07-29T09:18:50.172Z,24
2022-07-29T09:22:32.564Z,24
2022-07-29T09:25:37.869Z,23
2022-07-29T09:28:43.165Z,21
2022-07-29T09:31:48.548Z,20
2022-07-29T09:34:56.860Z,23
2022-07-29T09:38:36.154Z,21
2022-07-29T09:41:41.472Z,21
2022-07-29T09:44:46.755Z,22
2022-07-29T09:47:43.910Z,21
2022-07-29T09:50:49.199Z,22
2022-07-29T09:54:31.756Z,21
2022-07-29T09:57:36.870Z,21
2022-07-29T10:00:42.327Z,24
2022-07-29T10:03:47.534Z,23
2022-07-29T10:06:52.825Z,19
2022-07-29T10:10:35.199Z,21
2022-07-29T10:13:40.517Z,20
2022-07-29T10:16:45.886Z,21
2022-07-29T10:19:14.104Z,20
2022-07-29T10:21:42.317Z,19
2022-07-29T10:24:47.621Z,21
2022-07-29T10:27:52.937Z,21
2022-07-29T10:31:35.350Z,20
2022-07-29T10:34:40.602Z,18
2022-07-29T10:37:46.426Z,25
2022-07-29T10:40:51.235Z,24
2022-07-29T10:44:33.602Z,20
2022-07-29T10:47:30.726Z,21
2022-07-29T10:50:36.030Z,19
2022-07-29T10:53:41.335Z,18
2022-07-29T10:56:46.761Z,21
2022-07-29T10:59:52.999Z,20
2022-07-29T11:03:34.356Z,18
2022-07-29T11:06:39.654Z,23
2022-07-29T11:09:44.957Z,17
2022-07-29T11:12:50.258Z,18
2022-07-29T11:16:32.651Z,21
2022-07-29T11:19:40.302Z,19
2022-07-29T11:22:45.830Z,23
2022-07-29T11:25:51.082Z,23
2022-07-29T11:28:53.887Z,52
2022-07-29T11:32:36.821Z,27
2022-07-29T11:35:41.529Z,23
2022-07-29T11:38:46.850Z,20
2022-07-29T11:41:52.194Z,23
2022-07-29T11:45:42.337Z,21
2022-07-29T11:48:32.501Z,19
2022-07-29T11:51:37.001Z,21
2022-07-29T11:54:57.610Z,35
2022-07-29T11:57:47.576Z,21
2022-07-29T12:00:52.952Z,21
2022-07-29T12:04:35.287Z,19
2022-07-29T12:07:41.007Z,17
2022-07-29T12:10:46.035Z,19
2022-07-29T12:13:51.234Z,21
2022-07-29T12:17:33.609Z,380
2022-07-29T12:20:38.895Z,69
2022-07-29T12:23:44.210Z,41
2022-07-29T12:26:49.524Z,21
2022-07-29T12:30:31.922Z,19
2022-07-29T12:33:37.196Z,57
2022-07-29T12:36:42.526Z,17
2022-07-29T12:39:47.812Z,17
2022-07-29T12:42:53.159Z,32
2022-07-29T12:46:35.623Z,29
2022-07-29T12:49:32.612Z,29
2022-07-29T12:52:37.949Z,17
2022-07-29T12:55:43.265Z,17
2022-07-29T12:58:51.250Z,16
2022-07-29T13:03:45.107Z,13
2022-07-29T13:06:51.108Z,20
2022-07-29T13:10:32.780Z,20
2022-07-29T13:13:38.056Z,24
2022-07-29T13:16:43.413Z,15
2022-07-29T13:19:48.664Z,14
2022-07-29T13:22:54.002Z,13
2022-07-29T13:26:36.340Z,14
2022-07-29T13:29:41.668Z,19
2022-07-29T13:32:46.977Z,17
2022-07-29T13:35:52.312Z,16
2022-07-29T13:39:34.680Z,12
2022-07-29T13:42:39.985Z,11
2022-07-29T13:45:45.311Z,12
2022-07-29T13:48:42.472Z,13
2022-07-29T13:51:47.698Z,12
2022-07-29T13:54:53.039Z,10
2022-07-29T13:58:35.367Z,11
2022-07-29T14:01:40.748Z,10
2022-07-29T14:04:46.085Z,13
2022-07-29T14:08:06.585Z,13
2022-07-29T14:11:33.712Z,11
2022-07-29T14:14:39.042Z,11
2022-07-29T14:17:44.323Z,11
2022-07-29T14:20:49.595Z,12
2022-07-29T14:24:31.995Z,10
2022-07-29T14:27:38.613Z,9
2022-07-29T14:30:42.635Z,11
2022-07-29T14:33:49.199Z,12
2022-07-29T14:36:53.229Z,12
2022-07-29T14:40:35.613Z,11
2022-07-29T14:43:40.923Z,15
2022-07-29T14:46:46.639Z,10
2022-07-29T14:49:43.330Z,11
2022-07-29T14:52:48.662Z,9
2022-07-29T14:55:53.961Z,10
2022-07-29T14:59:36.331Z,9
2022-07-29T15:03:00.755Z,10
2022-07-29T15:05:46.983Z,10
2022-07-29T15:08:52.292Z,9
2022-07-29T15:12:34.669Z,8
2022-07-29T15:15:39.972Z,12
2022-07-29T15:18:45.273Z,7
2022-07-29T15:21:50.569Z,10
2022-07-29T15:25:32.922Z,9
2022-07-29T15:28:38.268Z,12
2022-07-29T15:31:43.617Z,9
2022-07-29T15:34:48.911Z,12
2022-07-29T15:37:54.205Z,9
2022-07-29T15:41:36.560Z,9
2022-07-29T15:44:04.797Z,8
2022-07-29T15:46:33.065Z,9
2022-07-29T15:50:46.899Z,8
2022-07-29T15:53:53.402Z,10
2022-07-29T15:56:54.966Z,8
2022-07-29T16:00:37.354Z,8
2022-07-29T16:03:45.755Z,13
2022-07-29T16:06:47.907Z,8
2022-07-29T16:09:53.522Z,8
2022-07-29T16:13:35.571Z,8
2022-07-29T16:16:40.944Z,9
2022-07-29T16:19:46.202Z,9
2022-07-29T16:22:51.533Z,6
2022-07-29T16:26:33.881Z,9
2022-07-29T16:29:39.206Z,9
2022-07-29T16:32:44.579Z,8
2022-07-29T16:35:49.812Z,8
2022-07-29T16:39:32.204Z,9
2022-07-29T16:42:46.396Z,7
2022-07-29T16:45:44.416Z,8
2022-07-29T16:50:31.134Z,8
2022-07-29T16:53:36.447Z,9
2022-07-29T16:57:13.802Z,9
2022-07-29T16:59:47.071Z,9
2022-07-29T17:02:52.358Z,9
2022-07-29T17:06:34.729Z,10
2022-07-29T17:10:12.036Z,10
2022-07-29T17:12:45.361Z,11
2022-07-29T17:15:50.759Z,10
2022-07-29T17:19:33.041Z,9
2022-07-29T17:22:38.389Z,12
2022-07-29T17:25:43.659Z,11
2022-07-29T17:28:48.965Z,9
2022-07-29T17:31:54.362Z,10
2022-07-29T17:35:36.656Z,9
2022-07-29T17:38:41.994Z,10
2022-07-29T17:41:47.305Z,10
2022-07-29T17:44:52.602Z,11
2022-07-29T17:48:34.960Z,10
2022-07-29T17:51:40.277Z,11
2022-07-29T17:54:45.594Z,12
2022-07-29T17:57:50.918Z,9
2022-07-29T18:01:25.112Z,13
2022-07-29T18:03:55.254Z,10
2022-07-29T18:07:35.696Z,10
2022-07-29T18:10:40.985Z,11
2022-07-29T18:13:46.347Z,11
2022-07-29T18:16:51.765Z,11
2022-07-29T18:20:34.005Z,11
2022-07-29T18:23:39.294Z,22
2022-07-29T18:26:44.629Z,39
2022-07-29T18:29:51.041Z,11
2022-07-29T18:33:32.298Z,13
2022-07-29T18:36:37.630Z,16
2022-07-29T18:39:42.940Z,15
2022-07-29T18:42:48.261Z,13
2022-07-29T18:45:53.544Z,15
2022-07-29T18:49:35.883Z,14
2022-07-29T18:52:41.207Z,11
2022-07-29T18:55:46.556Z,14
2022-07-29T18:58:51.842Z,14
2022-07-29T19:02:26.194Z,15
2022-07-29T19:04:54.273Z,14
2022-07-29T19:08:36.651Z,14
2022-07-29T19:11:41.954Z,17
2022-07-29T19:14:47.284Z,16
2022-07-29T19:17:52.570Z,16
2022-07-29T19:21:34.980Z,14
2022-07-29T19:24:40.251Z,15
2022-07-29T19:27:45.589Z,16
2022-07-29T19:30:50.964Z,17
2022-07-29T19:34:33.251Z,16
2022-07-29T19:37:38.563Z,20
2022-07-29T19:40:43.861Z,15
2022-07-29T19:43:50.112Z,16
2022-07-29T19:46:54.493Z,19
2022-07-29T19:50:36.850Z,21
2022-07-29T19:54:14.595Z,17
2022-07-29T19:56:47.473Z,16
2022-07-29T19:59:52.820Z,20
2022-07-29T20:03:26.979Z,18
2022-07-29T20:05:55.215Z,18
2022-07-29T20:09:37.639Z,19
2022-07-29T20:12:42.937Z,32
2022-07-29T20:15:48.296Z,25
2022-07-29T20:18:53.563Z,18
2022-07-29T20:22:35.863Z,19
2022-07-29T20:25:41.204Z,15
2022-07-29T20:28:49.253Z,16
2022-07-29T20:31:52.941Z,47
2022-07-29T20:35:34.218Z,24
2022-07-29T20:38:39.509Z,22
2022-07-29T20:41:44.814Z,17
2022-07-29T20:44:50.156Z,18
2022-07-29T20:48:32.513Z,15
2022-07-29T20:51:43.349Z,15
2022-07-29T20:54:43.157Z,17
2022-07-29T20:57:48.436Z,22
2022-07-29T21:05:42.111Z,20
2022-07-29T21:08:47.372Z,20
2022-07-29T21:11:52.676Z,21
2022-07-29T21:15:35.133Z,20
2022-07-29T21:18:40.371Z,15
2022-07-29T21:21:45.689Z,24
2022-07-29T21:24:50.976Z,20
2022-07-29T21:28:33.409Z,19
2022-07-29T21:31:38.650Z,21
2022-07-29T21:34:43.990Z,16
2022-07-29T21:37:49.286Z,20
2022-07-29T21:40:54.616Z,18
2022-07-29T21:44:36.975Z,17
2022-07-29T21:47:42.297Z,21
2022-07-29T21:50:47.655Z,17
2022-07-29T21:53:53.206Z,20
2022-07-29T21:57:35.257Z,25
2022-07-29T22:00:40.590Z,23
2022-07-29T22:03:37.686Z,27
2022-07-29T22:06:43.013Z,22
2022-07-29T22:09:48.363Z,28
2022-07-29T22:12:53.665Z,21
2022-07-29T22:16:36.091Z,19
2022-07-29T22:19:41.305Z,21
2022-07-29T22:22:46.652Z,20
2022-07-29T22:25:51.951Z,20
2022-07-29T22:29:34.324Z,19
2022-07-29T22:32:39.639Z,22
2022-07-29T22:35:44.952Z,20
2022-07-29T22:38:51.930Z,21
2022-07-29T22:42:32.610Z,23
2022-07-29T22:45:37.967Z,17
2022-07-29T22:48:43.316Z,16
2022-07-29T22:51:48.564Z,16
2022-07-29T22:54:53.850Z,18
2022-07-29T22:58:36.248Z,19
2022-07-29T23:03:24.570Z,19
2022-07-29T23:05:52.776Z,22
2022-07-29T23:09:35.157Z,23
2022-07-29T23:12:40.475Z,20
2022-07-29T23:15:45.797Z,21
2022-07-29T23:18:51.067Z,25
2022-07-29T23:22:33.476Z,21
2022-07-29T23:25:38.785Z,21
2022-07-29T23:28:44.119Z,20
2022-07-29T23:31:49.401Z,16
2022-07-29T23:34:54.695Z,20
2022-07-29T23:38:37.090Z,19
2022-07-29T23:41:42.422Z,17
2022-07-29T23:44:47.699Z,22
2022-07-29T23:47:53.013Z,19
2022-07-29T23:51:35.409Z,19
2022-07-29T23:54:40.709Z,22
2022-07-29T23:57:45.998Z,18
